Time;durP1;ratioP1;P1;durP2;ratioP2;P2;SDS_P1;SDS_P2;PMS_P1;PMS_P2;Temp;Humidity;BMP_temperature;BMP_pressure;BME280_temperature;BME280_humidity;BME280_pressure;Samples;Min_cycle;Max_cycle;Signal;HPM_P1;HPM_P2
2021/12/11 00:01:17;;;;;;;8.70;7.37;;;1.10;99.90;;;;;;4916784;29;20845;-72
2021/12/11 00:03:55;;;;;;;9.53;5.47;;;1.00;99.90;;;;;;4917953;29;20419;-71
2021/12/11 00:06:25;;;;;;;13.67;7.10;;;0.90;99.90;;;;;;4917452;29;20848;-72
2021/12/11 00:08:55;;;;;;;9.57;6.43;;;1.10;99.90;;;;;;4917832;29;20419;-71
2021/12/11 00:11:34;;;;;;;9.97;6.30;;;1.00;99.90;;;;;;4916524;29;20453;-71
2021/12/11 00:14:03;;;;;;;18.83;8.67;;;1.00;99.90;;;;;;4917303;29;20486;-72
2021/12/11 00:16:31;;;;;;;17.50;10.57;;;1.00;99.90;;;;;;4917324;29;20420;-72
2021/12/11 00:19:02;;;;;;;14.00;6.97;;;0.90;99.90;;;;;;4917302;29;20907;-72
2021/12/11 00:21:29;;;;;;;7.77;6.47;;;0.90;99.90;;;;;;4916921;29;20487;-72
2021/12/11 00:24:03;;;;;;;10.23;7.87;;;1.00;99.90;;;;;;4917086;29;20432;-72
2021/12/11 00:26:36;;;;;;;10.50;6.00;;;1.00;99.90;;;;;;4916981;29;20450;-72
2021/12/11 00:29:03;;;;;;;9.77;5.47;;;1.00;99.90;;;;;;4917326;29;20488;-71
2021/12/11 00:31:30;;;;;;;21.20;10.50;;;1.00;99.90;;;;;;4917039;29;20412;-71
2021/12/11 00:33:56;;;;;;;9.40;6.40;;;1.00;99.90;;;;;;4916822;29;20404;-72
2021/12/11 00:36:27;;;;;;;11.77;7.13;;;1.10;99.90;;;;;;4916585;29;20415;-71
2021/12/11 00:38:53;;;;;;;8.53;6.10;;;1.00;99.90;;;;;;4916911;29;20447;-72
2021/12/11 00:41:21;;;;;;;18.23;8.17;;;1.10;99.90;;;;;;4916624;29;20483;-72
2021/12/11 00:43:48;;;;;;;13.80;8.87;;;1.00;99.90;;;;;;4916815;29;20182;-72
2021/12/11 00:46:24;;;;;;;16.33;9.10;;;1.00;99.90;;;;;;4916540;29;20835;-72
2021/12/11 00:48:49;;;;;;;15.10;6.53;;;1.00;99.90;;;;;;4916770;29;20914;-72
2021/12/11 00:51:19;;;;;;;12.43;9.20;;;1.10;99.90;;;;;;4916681;29;20444;-72
2021/12/11 00:53:56;;;;;;;12.37;7.90;;;1.00;99.90;;;;;;4916667;29;20225;-72
2021/12/11 00:56:27;;;;;;;17.80;6.53;;;1.00;99.90;;;;;;4916954;29;20426;-72
2021/12/11 00:58:55;;;;;;;12.07;8.07;;;1.10;99.90;;;;;;4916669;29;20424;-72
2021/12/11 01:01:30;;;;;;;13.60;9.73;;;1.00;99.90;;;;;;4916946;29;20518;-72
2021/12/11 01:04:04;;;;;;;9.57;6.37;;;1.00;99.90;;;;;;4916898;29;20423;-72
2021/12/11 01:06:36;;;;;;;10.20;7.00;;;1.10;99.90;;;;;;4899324;29;20967;-72
2021/12/11 01:09:11;;;;;;;13.30;7.37;;;1.10;99.90;;;;;;4897324;29;20864;-72
2021/12/11 01:11:48;;;;;;;7.77;5.70;;;1.10;99.90;;;;;;4911968;29;20412;-72
2021/12/11 01:14:31;;;;;;;8.77;6.63;;;1.00;99.90;;;;;;4897638;29;20452;-72
2021/12/11 01:17:21;;;;;;;5.97;5.37;;;1.00;99.90;;;;;;4897403;29;20417;-72
2021/12/11 01:19:54;;;;;;;13.50;7.47;;;1.00;99.90;;;;;;4897477;29;20421;-72
2021/12/11 01:22:34;;;;;;;18.23;7.73;;;1.00;99.90;;;;;;4897679;29;20935;-72
2021/12/11 01:25:08;;;;;;;12.43;4.30;;;1.00;99.90;;;;;;4897360;29;20462;-72
2021/12/11 01:27:34;;;;;;;10.20;6.33;;;1.00;99.90;;;;;;4897370;29;20437;-72
2021/12/11 01:30:03;;;;;;;13.03;7.57;;;1.00;99.90;;;;;;4896960;29;20460;-71
2021/12/11 01:32:31;;;;;;;7.37;5.70;;;1.00;99.90;;;;;;4896748;29;20484;-71
2021/12/11 01:35:00;;;;;;;10.20;8.67;;;1.00;99.90;;;;;;4896737;29;20458;-73
2021/12/11 01:37:26;;;;;;;10.40;5.93;;;1.00;99.90;;;;;;4896767;29;20500;-71
2021/12/11 01:39:52;;;;;;;10.07;4.67;;;0.90;99.90;;;;;;4896596;29;20482;-73
2021/12/11 01:42:23;;;;;;;13.77;8.03;;;0.90;99.90;;;;;;4896593;29;20431;-71
2021/12/11 01:44:53;;;;;;;15.33;6.20;;;1.00;99.90;;;;;;4896641;29;20944;-71
2021/12/11 01:47:25;;;;;;;11.93;4.90;;;1.00;99.90;;;;;;4896722;29;20420;-70
2021/12/11 01:49:55;;;;;;;10.13;7.43;;;1.10;99.90;;;;;;4896700;29;20439;-72
2021/12/11 01:52:34;;;;;;;11.90;6.00;;;1.10;99.90;;;;;;4896676;29;20533;-70
2021/12/11 01:55:00;;;;;;;14.00;6.90;;;1.10;99.90;;;;;;4896600;29;20412;-71
2021/12/11 01:57:29;;;;;;;13.17;6.97;;;1.10;99.90;;;;;;4896482;29;20511;-71
2021/12/11 02:00:06;;;;;;;7.70;6.17;;;1.00;99.90;;;;;;4896458;29;20487;-71
2021/12/11 02:02:41;;;;;;;16.07;7.00;;;1.10;99.90;;;;;;4910695;29;20854;-71
2021/12/11 02:05:10;;;;;;;15.27;9.40;;;1.20;99.90;;;;;;4896311;29;20468;-71
2021/12/11 02:07:44;;;;;;;21.13;7.90;;;1.10;99.90;;;;;;4896265;29;20908;-71
2021/12/11 02:10:29;;;;;;;10.03;7.20;;;1.10;99.90;;;;;;4896375;29;20437;-71
2021/12/11 02:12:57;;;;;;;11.33;5.40;;;1.10;99.90;;;;;;4896484;29;20476;-71
2021/12/11 02:15:32;;;;;;;17.37;7.60;;;1.00;99.90;;;;;;4896483;29;20408;-71
2021/12/11 02:18:10;;;;;;;9.40;6.20;;;1.10;99.90;;;;;;4896222;29;20490;-72
2021/12/11 02:20:41;;;;;;;8.70;6.70;;;1.10;99.90;;;;;;4896632;29;20435;-71
2021/12/11 02:23:07;;;;;;;11.40;7.20;;;1.10;99.90;;;;;;4896377;29;20403;-72
2021/12/11 02:25:37;;;;;;;13.77;6.07;;;1.10;99.90;;;;;;4896142;29;20464;-71
2021/12/11 02:30:35;;;;;;;13.30;7.67;;;1.20;99.90;;;;;;4970078;28;20460;-69
2021/12/11 02:33:15;;;;;;;8.03;6.50;;;1.10;99.90;;;;;;4973071;28;20496;-69
2021/12/11 02:35:52;;;;;;;10.17;8.43;;;1.00;99.90;;;;;;4972981;28;20408;-70
2021/12/11 02:38:24;;;;;;;12.77;7.60;;;1.00;99.90;;;;;;4973411;28;20401;-69
2021/12/11 02:41:03;;;;;;;11.17;7.37;;;1.00;99.90;;;;;;4971755;28;20428;-69
2021/12/11 02:43:34;;;;;;;13.87;6.47;;;1.10;99.90;;;;;;4973193;28;20892;-68
2021/12/11 02:46:20;;;;;;;15.53;7.30;;;1.00;99.90;;;;;;4971511;28;20461;-68
2021/12/11 02:48:57;;;;;;;10.87;8.80;;;1.10;99.90;;;;;;4973014;28;20856;-68
2021/12/11 02:51:55;;;;;;;13.23;6.27;;;1.10;99.90;;;;;;4972970;28;20408;-68
2021/12/11 02:54:31;;;;;;;11.10;5.60;;;1.10;99.90;;;;;;4974976;28;20422;-69
2021/12/11 02:57:01;;;;;;;15.53;7.67;;;1.10;99.90;;;;;;4971995;28;20420;-68
2021/12/11 02:59:29;;;;;;;17.00;8.57;;;1.00;99.90;;;;;;4972964;28;20912;-68
2021/12/11 03:02:05;;;;;;;11.70;7.57;;;1.10;99.90;;;;;;4973045;28;20417;-69
2021/12/11 03:04:37;;;;;;;14.07;8.37;;;1.10;99.90;;;;;;4972718;28;20444;-69
2021/12/11 03:07:07;;;;;;;8.03;5.83;;;1.10;99.90;;;;;;4972828;28;20417;-69
2021/12/11 03:09:36;;;;;;;11.43;7.20;;;1.10;99.90;;;;;;4972981;28;20436;-69
2021/12/11 03:12:06;;;;;;;10.40;7.17;;;1.00;99.90;;;;;;4972727;28;20404;-70
2021/12/11 03:14:32;;;;;;;10.83;6.30;;;1.10;99.90;;;;;;4971846;28;20456;-69
2021/12/11 03:16:57;;;;;;;13.57;8.10;;;1.10;99.90;;;;;;4973460;28;20471;-70
2021/12/11 03:19:26;;;;;;;13.70;7.77;;;1.00;99.90;;;;;;4973485;28;20436;-70
2021/12/11 03:21:53;;;;;;;9.80;5.00;;;1.10;99.90;;;;;;4972314;28;20428;-69
2021/12/11 03:24:20;;;;;;;10.90;6.70;;;1.00;99.90;;;;;;4972607;28;20440;-69
2021/12/11 03:26:48;;;;;;;12.27;7.40;;;1.00;99.90;;;;;;4973854;28;20467;-69
2021/12/11 03:29:14;;;;;;;6.13;5.37;;;1.00;99.90;;;;;;4973995;28;20504;-69
2021/12/11 03:31:40;;;;;;;10.30;6.60;;;1.00;99.90;;;;;;4972656;28;20413;-69
2021/12/11 03:34:10;;;;;;;14.37;9.20;;;1.00;99.90;;;;;;4972629;28;20718;-69
2021/12/11 03:36:36;;;;;;;9.33;8.40;;;0.90;99.90;;;;;;4972514;28;20496;-69
2021/12/11 03:39:16;;;;;;;9.77;6.40;;;0.80;99.90;;;;;;4972471;28;20475;-69
2021/12/11 03:41:43;;;;;;;13.70;9.67;;;0.80;99.90;;;;;;4972595;28;20903;-69
2021/12/11 03:44:10;;;;;;;16.17;8.47;;;0.80;99.90;;;;;;4972372;28;20503;-69
2021/12/11 03:46:36;;;;;;;14.80;7.63;;;0.80;99.90;;;;;;4975522;28;20511;-69
2021/12/11 03:49:13;;;;;;;16.13;7.90;;;0.80;99.90;;;;;;4975834;28;20431;-69
2021/12/11 03:51:42;;;;;;;12.90;7.97;;;0.80;99.90;;;;;;4989911;28;20448;-68
2021/12/11 03:54:12;;;;;;;13.00;10.10;;;0.90;99.90;;;;;;4974633;28;20415;-69
2021/12/11 03:56:38;;;;;;;14.33;8.83;;;1.00;99.90;;;;;;4975736;28;20413;-68
2021/12/11 03:59:09;;;;;;;16.30;11.27;;;1.00;99.90;;;;;;4975761;28;20471;-69
2021/12/11 04:01:40;;;;;;;13.00;8.90;;;1.00;99.90;;;;;;4975768;28;20409;-68
2021/12/11 04:04:14;;;;;;;10.63;7.27;;;1.00;99.90;;;;;;4975979;28;20417;-68
2021/12/11 04:06:40;;;;;;;15.17;7.43;;;1.10;99.90;;;;;;4975483;28;20424;-68
2021/12/11 04:09:08;;;;;;;13.27;7.57;;;0.90;99.90;;;;;;4975772;28;20448;-68
2021/12/11 04:11:35;;;;;;;12.33;8.83;;;1.00;99.90;;;;;;4975676;28;20742;-68
2021/12/11 04:14:06;;;;;;;16.33;10.80;;;1.00;99.90;;;;;;4975679;28;20421;-68
2021/12/11 04:16:34;;;;;;;12.50;6.97;;;0.70;99.90;;;;;;4975186;28;20424;-68
2021/12/11 04:19:01;;;;;;;10.77;7.07;;;0.70;99.90;;;;;;4975623;28;20471;-68
2021/12/11 04:21:27;;;;;;;19.07;6.57;;;0.80;99.90;;;;;;4975487;28;20750;-69
2021/12/11 04:23:53;;;;;;;16.00;8.43;;;0.90;99.90;;;;;;4975783;28;20560;-69
2021/12/11 04:26:19;;;;;;;22.27;8.80;;;0.90;99.90;;;;;;4975305;28;21010;-69
2021/12/11 04:28:46;;;;;;;13.07;5.03;;;0.80;99.90;;;;;;4975223;28;20205;-69
2021/12/11 04:31:17;;;;;;;8.00;4.30;;;0.80;99.90;;;;;;4974045;28;21079;-69
2021/12/11 04:33:47;;;;;;;8.33;5.47;;;0.60;99.90;;;;;;4975246;28;20513;-69
2021/12/11 04:36:20;;;;;;;10.30;8.70;;;0.70;99.90;;;;;;4974828;28;20546;-69
2021/12/11 04:38:47;;;;;;;8.53;4.73;;;0.80;99.90;;;;;;4975221;28;20433;-68
2021/12/11 04:41:19;;;;;;;13.40;7.70;;;0.70;99.90;;;;;;4975156;28;20468;-68
2021/12/11 04:43:47;;;;;;;10.93;8.00;;;0.70;99.90;;;;;;4975049;28;20421;-68
2021/12/11 04:46:13;;;;;;;14.17;8.83;;;0.60;99.90;;;;;;4975104;28;20460;-68
2021/12/11 04:48:55;;;;;;;9.53;6.83;;;0.70;99.90;;;;;;4974803;28;20432;-68
2021/12/11 04:51:27;;;;;;;12.67;7.13;;;0.70;99.90;;;;;;4974858;28;20401;-68
2021/12/11 04:54:18;;;;;;;14.03;7.10;;;0.70;99.90;;;;;;4974689;28;20519;-68
2021/12/11 04:57:34;;;;;;;15.10;5.90;;;0.60;99.90;;;;;;4974296;28;20401;-68
2021/12/11 05:05:22;;;;;;;9.70;6.27;;;0.70;99.90;;;;;;4974681;28;20456;-68
2021/12/11 05:08:36;;;;;;;7.93;5.50;;;0.70;99.90;;;;;;4974656;28;20891;-68
2021/12/11 05:10:56;;;;;;;11.83;8.40;;;0.70;99.90;;;;;;4974509;28;20420;-69
2021/12/11 05:13:24;;;;;;;11.93;6.90;;;0.60;99.90;;;;;;4975685;28;20389;-69
2021/12/11 05:15:55;;;;;;;14.97;8.20;;;0.70;99.90;;;;;;4976341;28;20891;-69
2021/12/11 05:18:25;;;;;;;19.43;8.97;;;0.80;99.90;;;;;;4975582;28;20531;-68
2021/12/11 05:20:56;;;;;;;17.63;6.93;;;0.80;99.90;;;;;;4974437;28;20413;-68
2021/12/11 05:23:23;;;;;;;6.67;6.07;;;0.70;99.90;;;;;;4974421;28;20409;-68
2021/12/11 05:25:49;;;;;;;17.20;7.90;;;0.80;99.90;;;;;;4988871;28;20489;-68
2021/12/11 05:28:15;;;;;;;14.60;7.07;;;0.80;99.90;;;;;;4974089;28;20507;-68
2021/12/11 05:30:46;;;;;;;13.87;7.50;;;0.80;99.90;;;;;;4974430;28;20415;-68
2021/12/11 05:33:13;;;;;;;18.47;9.20;;;0.80;99.90;;;;;;4974245;28;20181;-68
2021/12/11 05:35:40;;;;;;;10.20;5.20;;;0.80;99.90;;;;;;4974117;28;20416;-68
2021/12/11 05:38:08;;;;;;;14.87;5.67;;;0.90;99.90;;;;;;4974344;28;20416;-68
2021/12/11 05:40:36;;;;;;;11.00;4.93;;;0.90;99.90;;;;;;4974297;28;20918;-68
2021/12/11 05:43:02;;;;;;;10.57;5.77;;;0.90;99.90;;;;;;4974180;28;20857;-69
2021/12/11 05:45:27;;;;;;;15.13;6.83;;;0.80;99.90;;;;;;4974074;28;20461;-68
2021/12/11 05:47:53;;;;;;;19.23;8.43;;;0.80;99.90;;;;;;4973768;28;20410;-68
2021/12/11 05:50:26;;;;;;;24.10;6.50;;;0.80;99.90;;;;;;4972292;28;20221;-68
2021/12/11 05:52:52;;;;;;;12.30;7.83;;;0.90;99.90;;;;;;4953211;28;20493;-68
2021/12/11 05:55:20;;;;;;;15.40;7.50;;;0.80;99.90;;;;;;4954746;28;20410;-68
2021/12/11 05:57:55;;;;;;;13.33;6.77;;;0.80;99.90;;;;;;4954337;28;20426;-68
2021/12/11 06:00:26;;;;;;;9.63;8.13;;;0.80;99.90;;;;;;4954399;28;20504;-68
2021/12/11 06:02:52;;;;;;;11.63;7.03;;;0.90;99.90;;;;;;4954353;28;20413;-68
2021/12/11 06:05:18;;;;;;;11.80;5.70;;;0.90;99.90;;;;;;4954146;28;20454;-68
2021/12/11 06:07:43;;;;;;;15.03;6.80;;;1.00;99.90;;;;;;4954131;28;20454;-68
2021/12/11 06:10:13;;;;;;;20.27;8.07;;;0.90;99.90;;;;;;4953644;28;20197;-68
2021/12/11 06:12:40;;;;;;;16.13;8.33;;;0.90;99.90;;;;;;4954278;28;20190;-69
2021/12/11 06:15:06;;;;;;;12.97;9.20;;;1.00;99.90;;;;;;4953900;28;20414;-68
2021/12/11 06:17:33;;;;;;;8.57;4.90;;;1.00;99.90;;;;;;4954205;28;20413;-68
2021/12/11 06:20:02;;;;;;;10.17;7.57;;;1.00;99.90;;;;;;4953999;28;20452;-68
2021/12/11 06:22:30;;;;;;;12.43;5.70;;;1.00;99.90;;;;;;4954307;28;20441;-69
2021/12/11 06:24:59;;;;;;;7.60;6.80;;;1.00;99.90;;;;;;4953698;28;20465;-68
2021/12/11 06:27:26;;;;;;;11.27;6.63;;;1.00;99.90;;;;;;4952743;29;20414;-68
2021/12/11 06:29:52;;;;;;;11.00;6.63;;;1.00;99.90;;;;;;4953916;28;20500;-69
2021/12/11 06:32:18;;;;;;;12.47;6.33;;;1.10;99.90;;;;;;4968811;28;20460;-68
2021/12/11 06:34:45;;;;;;;10.93;6.93;;;1.10;99.90;;;;;;4953845;28;20182;-69
2021/12/11 06:37:14;;;;;;;8.90;5.10;;;1.10;99.90;;;;;;4953835;28;20889;-68
2021/12/11 06:39:40;;;;;;;11.00;5.60;;;1.10;99.90;;;;;;4953837;28;20434;-68
2021/12/11 06:42:09;;;;;;;12.50;8.17;;;1.10;99.90;;;;;;4953795;28;20414;-68
2021/12/11 06:44:36;;;;;;;19.83;9.10;;;1.20;99.90;;;;;;4953668;28;20926;-68
2021/12/11 06:47:04;;;;;;;7.67;6.17;;;1.20;99.90;;;;;;4954169;28;20481;-68
2021/12/11 06:49:33;;;;;;;9.00;4.73;;;1.20;99.90;;;;;;4952562;28;20526;-69
2021/12/11 06:52:00;;;;;;;12.87;6.33;;;1.20;99.90;;;;;;4953987;28;20416;-70
2021/12/11 06:54:25;;;;;;;8.07;6.27;;;1.20;99.90;;;;;;4953787;28;20442;-69
2021/12/11 06:56:52;;;;;;;9.27;5.40;;;1.20;99.90;;;;;;4953676;28;20445;-69
2021/12/11 06:59:18;;;;;;;14.70;8.57;;;1.20;99.90;;;;;;4954043;28;20214;-69
2021/12/11 07:01:44;;;;;;;12.70;5.53;;;1.30;99.90;;;;;;4953883;28;20935;-68
2021/12/11 07:04:11;;;;;;;8.73;5.73;;;1.30;99.90;;;;;;4953886;28;20187;-69
2021/12/11 07:06:40;;;;;;;8.77;6.00;;;1.20;99.90;;;;;;4953924;28;20469;-69
2021/12/11 07:09:07;;;;;;;10.80;5.40;;;1.30;99.90;;;;;;4954028;28;20442;-69
2021/12/11 07:11:34;;;;;;;12.33;6.73;;;1.30;99.90;;;;;;4954379;28;20508;-69
2021/12/11 07:14:00;;;;;;;11.33;7.50;;;1.20;99.90;;;;;;4954147;28;20406;-68
2021/12/11 07:16:25;;;;;;;10.23;5.37;;;1.30;99.90;;;;;;4954200;28;20472;-68
2021/12/11 07:18:51;;;;;;;13.07;6.70;;;1.30;99.90;;;;;;4953665;28;20190;-69
2021/12/11 07:21:17;;;;;;;10.43;6.40;;;1.30;99.90;;;;;;4959291;28;20192;-69
2021/12/11 07:23:45;;;;;;;21.87;8.27;;;1.30;99.90;;;;;;4976512;28;20688;-68
2021/12/11 07:26:16;;;;;;;15.07;8.30;;;1.30;99.90;;;;;;4976096;28;20452;-69
2021/12/11 07:28:45;;;;;;;23.37;8.40;;;1.30;99.90;;;;;;4976283;28;20948;-69
2021/12/11 07:31:11;;;;;;;19.70;10.67;;;1.30;99.90;;;;;;4976362;28;20415;-69
2021/12/11 07:33:37;;;;;;;9.13;8.20;;;1.30;99.90;;;;;;4976214;28;20492;-68
2021/12/11 07:36:04;;;;;;;18.43;8.77;;;1.40;99.90;;;;;;4976428;28;20190;-69
2021/12/11 07:38:31;;;;;;;12.70;8.10;;;1.30;99.90;;;;;;4976057;28;20433;-68
2021/12/11 07:40:59;;;;;;;15.93;7.40;;;1.30;99.90;;;;;;4976063;28;20923;-68
2021/12/11 07:43:27;;;;;;;19.93;8.87;;;1.40;99.90;;;;;;4976066;28;20805;-68
2021/12/11 07:45:53;;;;;;;7.40;6.47;;;1.40;99.90;;;;;;4974659;28;20471;-68
2021/12/11 07:48:20;;;;;;;14.83;8.33;;;1.40;99.90;;;;;;4975841;28;20429;-70
2021/12/11 07:50:46;;;;;;;8.30;5.70;;;1.30;99.90;;;;;;4976243;28;20452;-68
2021/12/11 07:53:13;;;;;;;7.93;7.10;;;1.30;99.90;;;;;;4975857;28;20452;-69
2021/12/11 07:55:39;;;;;;;10.53;7.00;;;1.40;99.90;;;;;;4976227;28;20412;-69
2021/12/11 07:58:06;;;;;;;14.90;6.73;;;1.40;99.90;;;;;;4975886;28;20419;-69
2021/12/11 08:00:34;;;;;;;11.60;7.17;;;1.40;99.90;;;;;;4976237;28;20205;-70
2021/12/11 08:03:00;;;;;;;13.90;6.40;;;1.40;99.90;;;;;;4976064;28;20405;-70
2021/12/11 08:05:27;;;;;;;9.30;6.50;;;1.40;99.90;;;;;;4976305;28;20966;-70
2021/12/11 08:07:53;;;;;;;14.37;7.57;;;1.40;99.90;;;;;;4976752;28;20405;-69
2021/12/11 08:10:23;;;;;;;9.97;7.37;;;1.50;99.90;;;;;;4976783;28;20791;-70
2021/12/11 08:12:49;;;;;;;16.70;10.40;;;1.50;99.90;;;;;;4977004;28;20176;-69
2021/12/11 08:15:16;;;;;;;16.63;7.60;;;1.50;99.90;;;;;;4976385;28;20424;-69
2021/12/11 08:17:42;;;;;;;10.67;8.20;;;1.50;99.90;;;;;;4976501;28;20424;-69
2021/12/11 08:20:11;;;;;;;18.50;6.73;;;1.50;99.90;;;;;;4975768;28;20436;-69
2021/12/11 08:22:37;;;;;;;23.23;7.87;;;1.50;99.90;;;;;;4975358;28;20958;-69
2021/12/11 08:25:05;;;;;;;13.20;8.93;;;1.50;99.90;;;;;;4975200;28;20471;-70
2021/12/11 08:27:31;;;;;;;10.33;8.20;;;1.50;99.90;;;;;;4975390;28;20708;-69
2021/12/11 08:29:56;;;;;;;8.60;5.40;;;1.50;99.90;;;;;;4975215;28;20484;-69
2021/12/11 08:32:22;;;;;;;19.13;8.67;;;1.40;99.90;;;;;;4975529;28;20212;-70
2021/12/11 08:34:48;;;;;;;25.23;6.90;;;1.40;99.90;;;;;;4975662;28;20603;-70
2021/12/11 08:37:18;;;;;;;8.97;5.33;;;1.40;99.90;;;;;;4975532;28;20437;-69
2021/12/11 08:39:44;;;;;;;13.00;7.63;;;1.50;99.90;;;;;;4975382;28;20496;-70
2021/12/11 08:42:15;;;;;;;10.93;7.47;;;1.50;99.90;;;;;;4975490;28;20405;-70
2021/12/11 08:44:49;;;;;;;16.60;9.20;;;1.40;99.90;;;;;;4975146;28;20224;-72
2021/12/11 08:47:16;;;;;;;15.93;7.33;;;1.50;99.90;;;;;;4975018;28;20441;-70
2021/12/11 08:49:42;;;;;;;10.47;6.50;;;1.40;99.90;;;;;;4975275;28;20443;-73
2021/12/11 08:52:19;;;;;;;12.60;7.00;;;1.50;99.90;;;;;;4976258;28;20445;-68
2021/12/11 08:54:46;;;;;;;6.53;5.00;;;1.40;99.90;;;;;;4975664;28;20448;-69
2021/12/11 08:57:15;;;;;;;9.83;6.67;;;1.30;99.90;;;;;;4976022;28;20459;-69
2021/12/11 08:59:48;;;;;;;18.77;6.80;;;1.30;99.90;;;;;;4973031;28;20500;-69
2021/12/11 09:02:22;;;;;;;20.13;8.30;;;1.20;99.90;;;;;;4968031;28;20434;-69
2021/12/11 09:05:09;;;;;;;8.60;7.63;;;1.00;99.90;;;;;;4965143;28;20532;-69
2021/12/11 09:07:50;;;;;;;14.70;7.23;;;1.20;99.90;;;;;;4955255;29;20529;-68
2021/12/11 09:10:19;;;;;;;11.03;5.37;;;1.30;99.90;;;;;;4974074;28;20429;-69
2021/12/11 09:12:57;;;;;;;6.90;6.30;;;1.30;99.90;;;;;;4974493;28;20456;-69
2021/12/11 09:15:44;;;;;;;7.10;3.67;;;1.30;99.90;;;;;;4974465;28;20447;-71
2021/12/11 09:18:16;;;;;;;9.03;5.10;;;1.00;99.90;;;;;;4973183;28;20412;-70
2021/12/11 09:20:49;;;;;;;9.87;7.00;;;0.90;99.90;;;;;;4974420;28;20421;-69
2021/12/11 09:23:25;;;;;;;9.20;3.77;;;0.90;99.90;;;;;;4974448;28;20417;-70
2021/12/11 09:26:12;;;;;;;10.87;4.47;;;1.10;99.90;;;;;;4973155;28;20494;-69
2021/12/11 09:28:47;;;;;;;7.07;4.20;;;0.90;99.90;;;;;;4974055;28;20452;-70
2021/12/11 09:31:25;;;;;;;10.70;5.77;;;0.90;99.90;;;;;;4974182;28;20435;-69
2021/12/11 09:34:03;;;;;;;9.63;4.33;;;1.10;99.90;;;;;;4973139;28;20421;-70
2021/12/11 09:36:33;;;;;;;14.67;5.60;;;1.10;99.90;;;;;;4973883;28;20401;-70
2021/12/11 09:39:22;;;;;;;4.03;3.77;;;1.10;99.90;;;;;;4974286;28;20464;-68
2021/12/11 09:41:47;;;;;;;8.97;5.53;;;1.10;99.90;;;;;;4972843;28;20960;-68
2021/12/11 09:44:20;;;;;;;7.47;5.23;;;1.30;99.90;;;;;;4973882;28;20401;-69
2021/12/11 09:46:56;;;;;;;9.53;7.87;;;1.10;99.90;;;;;;4973748;28;20227;-68
2021/12/11 09:49:26;;;;;;;13.03;4.60;;;1.10;99.90;;;;;;4973780;28;20417;-69
2021/12/11 09:52:01;;;;;;;10.37;3.60;;;1.30;99.90;;;;;;4973435;28;20448;-70
2021/12/11 09:54:31;;;;;;;10.73;4.90;;;1.10;99.90;;;;;;4973767;28;20416;-69
2021/12/11 09:57:03;;;;;;;16.67;7.30;;;1.20;99.90;;;;;;4973672;28;20774;-69
2021/12/11 09:59:32;;;;;;;6.80;4.27;;;1.10;99.90;;;;;;4973638;28;21017;-71
2021/12/11 10:02:13;;;;;;;7.57;4.67;;;1.20;99.90;;;;;;4973554;28;20413;-70
2021/12/11 10:04:57;;;;;;;5.03;3.80;;;1.30;99.90;;;;;;4973605;28;20568;-68
2021/12/11 10:09:53;;;;;;;5.53;5.00;;;1.10;99.90;;;;;;4977824;28;20445;-69
2021/12/11 10:12:23;;;;;;;5.17;3.23;;;1.30;99.90;;;;;;4973145;28;20413;-69
2021/12/11 10:14:57;;;;;;;4.77;3.40;;;1.50;99.90;;;;;;4968686;28;20779;-69
2021/12/11 10:17:30;;;;;;;10.40;5.23;;;1.50;99.90;;;;;;4954235;28;20416;-69
2021/12/11 10:20:00;;;;;;;4.73;4.27;;;1.40;99.90;;;;;;4973348;28;20488;-70
2021/12/11 10:22:31;;;;;;;9.73;6.27;;;1.30;99.90;;;;;;4973458;28;20504;-69
2021/12/11 10:24:57;;;;;;;5.73;3.87;;;1.20;99.90;;;;;;4973049;28;20449;-69
2021/12/11 10:27:26;;;;;;;16.30;6.30;;;1.20;99.90;;;;;;4973000;28;20942;-69
2021/12/11 10:29:53;;;;;;;8.10;5.23;;;1.20;99.90;;;;;;4973123;28;20480;-70
2021/12/11 10:32:24;;;;;;;13.77;3.97;;;1.40;99.90;;;;;;4973342;28;20409;-70
2021/12/11 10:34:53;;;;;;;8.30;5.43;;;1.30;99.90;;;;;;4972741;28;20412;-70
2021/12/11 10:37:35;;;;;;;5.40;4.17;;;1.50;99.90;;;;;;4972589;28;20443;-70
2021/12/11 10:40:11;;;;;;;7.70;5.00;;;1.50;99.90;;;;;;4972055;28;20452;-70
2021/12/11 10:42:36;;;;;;;5.03;4.53;;;1.60;99.90;;;;;;4953688;28;20809;-70
2021/12/11 10:45:04;;;;;;;7.40;6.23;;;1.60;99.90;;;;;;4969788;28;20504;-69
2021/12/11 10:47:40;;;;;;;5.27;4.77;;;1.50;99.90;;;;;;4973323;28;20180;-68
2021/12/11 10:50:13;;;;;;;5.30;3.73;;;1.40;99.90;;;;;;4970947;28;20970;-69
2021/12/11 10:52:39;;;;;;;4.87;3.53;;;1.40;99.90;;;;;;4972750;28;20407;-69
2021/12/11 10:57:33;;;;;;;8.60;5.97;;;1.20;99.90;;;;;;4992037;28;20464;-72
2021/12/11 11:00:00;;;;;;;9.93;4.93;;;1.20;99.90;;;;;;5010770;28;20419;-72
2021/12/11 11:02:29;;;;;;;6.97;4.90;;;1.40;99.90;;;;;;4995304;28;20408;-72
2021/12/11 11:05:00;;;;;;;9.90;7.13;;;1.40;99.90;;;;;;4995719;28;20562;-72
2021/12/11 11:07:27;;;;;;;17.10;5.43;;;1.40;99.90;;;;;;4992607;28;20404;-71
2021/12/11 11:09:57;;;;;;;6.83;4.33;;;1.20;99.90;;;;;;5010632;28;20502;-71
2021/12/11 11:12:26;;;;;;;6.97;4.57;;;1.50;99.90;;;;;;4995562;28;20443;-71
2021/12/11 11:14:53;;;;;;;10.83;6.67;;;1.60;99.90;;;;;;4995601;28;20435;-71
2021/12/11 11:17:22;;;;;;;8.23;6.40;;;1.50;99.90;;;;;;4993653;28;20543;-70
2021/12/11 11:19:50;;;;;;;8.60;4.20;;;1.40;99.90;;;;;;4993957;28;20482;-71
2021/12/11 11:22:26;;;;;;;6.90;5.17;;;1.40;99.90;;;;;;4990684;28;20902;-70
2021/12/11 11:25:10;;;;;;;12.47;6.63;;;1.30;99.90;;;;;;4984808;28;20471;-72
2021/12/11 11:27:37;;;;;;;7.83;4.97;;;1.30;99.90;;;;;;4995076;28;20400;-71
2021/12/11 11:30:10;;;;;;;10.33;4.63;;;1.30;99.90;;;;;;4995629;28;21024;-73
2021/12/11 11:32:36;;;;;;;7.60;5.10;;;1.30;99.90;;;;;;4995509;28;20938;-71
2021/12/11 11:35:09;;;;;;;7.57;5.73;;;1.40;99.90;;;;;;4995198;28;20507;-73
2021/12/11 11:37:35;;;;;;;6.20;5.40;;;1.50;99.90;;;;;;4995067;28;20192;-72
2021/12/11 11:40:11;;;;;;;7.37;5.00;;;1.40;99.90;;;;;;4995203;28;20769;-71
2021/12/11 11:42:37;;;;;;;4.93;3.73;;;1.50;99.90;;;;;;4995042;28;20420;-71
2021/12/11 11:45:05;;;;;;;8.30;5.20;;;1.40;99.90;;;;;;5002728;28;20462;-71
2021/12/11 11:47:31;;;;;;;4.57;3.90;;;1.20;99.90;;;;;;4994441;28;20528;-71
2021/12/11 11:49:59;;;;;;;10.53;5.50;;;1.30;99.90;;;;;;4995035;28;20490;-72
2021/12/11 11:52:27;;;;;;;13.90;7.93;;;1.30;99.90;;;;;;4991278;28;20162;-70
2021/12/11 11:54:55;;;;;;;7.03;6.27;;;1.20;99.90;;;;;;4975069;28;20417;-71
2021/12/11 11:57:33;;;;;;;5.90;3.43;;;1.20;99.90;;;;;;4973792;28;20794;-70
2021/12/11 12:00:01;;;;;;;7.77;4.47;;;1.30;99.90;;;;;;4975724;28;20424;-71
2021/12/11 12:02:29;;;;;;;3.53;3.23;;;1.30;99.90;;;;;;4994731;28;20420;-71
2021/12/11 12:04:57;;;;;;;6.43;4.00;;;1.30;99.90;;;;;;4994320;28;20902;-72
2021/12/11 12:07:28;;;;;;;8.73;5.03;;;1.20;99.90;;;;;;4993304;28;20439;-70
2021/12/11 12:09:56;;;;;;;7.43;3.70;;;1.20;99.90;;;;;;5011728;28;20878;-71
2021/12/11 12:12:22;;;;;;;4.47;3.00;;;1.40;99.90;;;;;;4996720;28;20409;-71
2021/12/11 12:14:51;;;;;;;6.20;4.10;;;1.30;99.90;;;;;;4994609;28;20412;-72
2021/12/11 12:17:20;;;;;;;8.23;4.13;;;1.40;99.90;;;;;;4994492;28;20515;-70
2021/12/11 12:19:48;;;;;;;8.20;5.97;;;1.40;99.90;;;;;;4994500;28;20408;-72
2021/12/11 12:22:16;;;;;;;9.43;5.67;;;1.40;99.90;;;;;;4994744;28;20443;-72
2021/12/11 12:24:44;;;;;;;7.10;4.90;;;1.30;99.90;;;;;;4994313;28;20416;-71
2021/12/11 12:27:13;;;;;;;5.10;3.43;;;1.20;99.90;;;;;;4993984;28;20450;-71
2021/12/11 12:29:41;;;;;;;5.47;3.50;;;1.60;99.90;;;;;;4994435;28;20837;-71
2021/12/11 12:32:16;;;;;;;3.27;2.63;;;2.20;99.90;;;;;;4994334;28;20503;-71
2021/12/11 12:34:43;;;;;;;6.20;3.73;;;2.00;99.90;;;;;;4994047;28;20403;-71
2021/12/11 12:37:09;;;;;;;5.60;4.60;;;2.20;99.90;;;;;;4994119;28;20479;-71
2021/12/11 12:39:40;;;;;;;9.60;5.53;;;2.20;99.90;;;;;;4994335;28;20867;-71
2021/12/11 12:42:37;;;;;;;5.17;3.63;;;2.70;99.90;;;;;;4994371;28;20696;-71
2021/12/11 12:45:13;;;;;;;5.60;3.57;;;2.50;99.90;;;;;;4993721;28;20503;-72
2021/12/11 12:47:43;;;;;;;7.63;4.70;;;2.10;99.90;;;;;;4986066;28;20501;-71
2021/12/11 12:50:18;;;;;;;8.07;5.43;;;2.40;99.90;;;;;;4995091;28;20839;-72
2021/12/11 12:52:45;;;;;;;6.57;5.93;;;2.60;99.90;;;;;;4994444;28;20700;-71
2021/12/11 12:55:35;;;;;;;11.77;6.40;;;2.50;99.90;;;;;;4993440;28;20419;-71
2021/12/11 12:58:06;;;;;;;10.80;5.63;;;2.50;99.90;;;;;;4995812;28;20466;-73
2021/12/11 13:00:42;;;;;;;9.90;5.43;;;2.60;99.90;;;;;;4993551;28;20837;-71
2021/12/11 13:03:17;;;;;;;9.37;5.33;;;2.60;99.90;;;;;;4993590;28;20407;-71
2021/12/11 13:05:50;;;;;;;16.23;7.10;;;2.90;99.90;;;;;;4993258;28;20520;-71
2021/12/11 13:08:27;;;;;;;8.67;4.90;;;2.60;99.90;;;;;;4994051;28;20419;-71
2021/12/11 13:10:57;;;;;;;7.83;4.90;;;2.00;99.90;;;;;;4993669;28;20408;-72
2021/12/11 13:13:24;;;;;;;9.30;6.20;;;1.60;99.90;;;;;;4994158;28;20465;-72
2021/12/11 13:16:06;;;;;;;10.47;6.10;;;1.80;99.90;;;;;;4993520;28;20432;-71
2021/12/11 13:18:35;;;;;;;7.67;3.50;;;1.60;99.90;;;;;;4992987;28;20937;-72
2021/12/11 13:21:08;;;;;;;4.70;3.30;;;1.50;99.90;;;;;;4993075;28;20451;-72